sensor_id;sensor_type;location;lat;lon;timestamp;temperature;humidity
63537;DHT22;49686;51.880;5.632;2024-01-16T00:00:56;-0.70;99.90
63537;DHT22;49686;51.880;5.632;2024-01-16T00:03:24;-0.70;99.90
63537;DHT22;49686;51.880;5.632;2024-01-16T00:05:51;-0.70;99.90
63537;DHT22;49686;51.880;5.632;2024-01-16T00:08:18;-0.70;99.90
63537;DHT22;49686;51.880;5.632;2024-01-16T00:10:45;-0.70;99.90
63537;DHT22;49686;51.880;5.632;2024-01-16T00:13:12;-0.70;99.90
63537;DHT22;49686;51.880;5.632;2024-01-16T00:15:39;-0.70;99.90
63537;DHT22;49686;51.880;5.632;2024-01-16T00:18:06;-0.80;99.90
63537;DHT22;49686;51.880;5.632;2024-01-16T00:20:34;-0.80;99.90
63537;DHT22;49686;51.880;5.632;2024-01-16T00:23:01;-0.70;99.90
63537;DHT22;49686;51.880;5.632;2024-01-16T00:25:28;-0.60;99.90
63537;DHT22;49686;51.880;5.632;2024-01-16T00:27:55;-0.60;99.90
63537;DHT22;49686;51.880;5.632;2024-01-16T00:30:22;-0.70;99.90
63537;DHT22;49686;51.880;5.632;2024-01-16T00:32:49;-0.80;99.90
63537;DHT22;49686;51.880;5.632;2024-01-16T00:35:16;-0.80;99.90
63537;DHT22;49686;51.880;5.632;2024-01-16T00:37:44;-0.80;99.90
63537;DHT22;49686;51.880;5.632;2024-01-16T00:40:11;-0.70;99.90
63537;DHT22;49686;51.880;5.632;2024-01-16T00:42:38;-0.60;99.90
63537;DHT22;49686;51.880;5.632;2024-01-16T00:45:06;-0.50;99.90
63537;DHT22;49686;51.880;5.632;2024-01-16T00:47:32;-0.50;99.90
63537;DHT22;49686;51.880;5.632;2024-01-16T00:50:00;-0.50;99.90
63537;DHT22;49686;51.880;5.632;2024-01-16T00:52:26;-0.40;99.90
63537;DHT22;49686;51.880;5.632;2024-01-16T00:54:55;-0.50;99.90
63537;DHT22;49686;51.880;5.632;2024-01-16T00:57:21;-0.40;99.90
63537;DHT22;49686;51.880;5.632;2024-01-16T00:59:48;-0.40;99.90
63537;DHT22;49686;51.880;5.632;2024-01-16T01:02:15;-0.30;99.90
63537;DHT22;49686;51.880;5.632;2024-01-16T01:04:42;-0.30;99.90
63537;DHT22;49686;51.880;5.632;2024-01-16T01:07:12;-0.30;99.90
63537;DHT22;49686;51.880;5.632;2024-01-16T01:09:39;-0.20;99.90
63537;DHT22;49686;51.880;5.632;2024-01-16T01:12:08;-0.20;99.90
63537;DHT22;49686;51.880;5.632;2024-01-16T01:14:35;-0.10;99.90
63537;DHT22;49686;51.880;5.632;2024-01-16T01:17:02;-0.10;99.90
63537;DHT22;49686;51.880;5.632;2024-01-16T01:19:29;-0.20;99.90
63537;DHT22;49686;51.880;5.632;2024-01-16T01:21:56;-0.10;99.90
63537;DHT22;49686;51.880;5.632;2024-01-16T01:24:23;-0.20;99.90
63537;DHT22;49686;51.880;5.632;2024-01-16T01:26:50;-0.10;99.90
63537;DHT22;49686;51.880;5.632;2024-01-16T01:29:18;0.00;99.90
63537;DHT22;49686;51.880;5.632;2024-01-16T01:31:45;0.00;99.90
63537;DHT22;49686;51.880;5.632;2024-01-16T01:34:12;0.00;99.90
63537;DHT22;49686;51.880;5.632;2024-01-16T01:36:39;0.00;99.90
63537;DHT22;49686;51.880;5.632;2024-01-16T01:39:06;0.00;99.90
63537;DHT22;49686;51.880;5.632;2024-01-16T01:41:33;0.00;99.90
63537;DHT22;49686;51.880;5.632;2024-01-16T01:44:00;-0.10;99.90
63537;DHT22;49686;51.880;5.632;2024-01-16T01:46:29;-0.10;99.90
63537;DHT22;49686;51.880;5.632;2024-01-16T01:48:56;-0.20;99.90
63537;DHT22;49686;51.880;5.632;2024-01-16T01:51:24;-0.30;99.90
63537;DHT22;49686;51.880;5.632;2024-01-16T01:53:51;-0.30;99.90
63537;DHT22;49686;51.880;5.632;2024-01-16T01:56:19;-0.40;99.90
63537;DHT22;49686;51.880;5.632;2024-01-16T01:58:48;-0.40;99.90
63537;DHT22;49686;51.880;5.632;2024-01-16T02:01:18;-0.40;99.90
63537;DHT22;49686;51.880;5.632;2024-01-16T02:03:47;-0.30;99.90
63537;DHT22;49686;51.880;5.632;2024-01-16T02:06:16;-0.30;99.90
63537;DHT22;49686;51.880;5.632;2024-01-16T02:08:43;-0.30;99.90
63537;DHT22;49686;51.880;5.632;2024-01-16T02:11:11;-0.30;99.90
63537;DHT22;49686;51.880;5.632;2024-01-16T02:13:38;-0.30;99.90
63537;DHT22;49686;51.880;5.632;2024-01-16T02:16:05;-0.30;99.90
63537;DHT22;49686;51.880;5.632;2024-01-16T02:18:32;-0.20;99.90
63537;DHT22;49686;51.880;5.632;2024-01-16T02:21:03;-0.20;99.90
63537;DHT22;49686;51.880;5.632;2024-01-16T02:23:33;-0.20;99.90
63537;DHT22;49686;51.880;5.632;2024-01-16T02:26:01;-0.20;99.90
63537;DHT22;49686;51.880;5.632;2024-01-16T02:28:28;-0.30;99.90
63537;DHT22;49686;51.880;5.632;2024-01-16T02:30:55;-0.20;99.90
63537;DHT22;49686;51.880;5.632;2024-01-16T02:33:22;-0.30;99.90
63537;DHT22;49686;51.880;5.632;2024-01-16T02:35:49;-0.20;99.90
63537;DHT22;49686;51.880;5.632;2024-01-16T02:38:16;-0.20;99.90
63537;DHT22;49686;51.880;5.632;2024-01-16T02:40:44;-0.10;99.90
63537;DHT22;49686;51.880;5.632;2024-01-16T02:43:11;-0.10;99.90
63537;DHT22;49686;51.880;5.632;2024-01-16T02:45:38;0.00;99.90
63537;DHT22;49686;51.880;5.632;2024-01-16T02:48:05;0.00;99.90
63537;DHT22;49686;51.880;5.632;2024-01-16T02:50:33;0.00;99.90
63537;DHT22;49686;51.880;5.632;2024-01-16T02:53:00;0.00;99.90
63537;DHT22;49686;51.880;5.632;2024-01-16T02:55:27;0.00;99.90
63537;DHT22;49686;51.880;5.632;2024-01-16T02:57:55;0.10;99.90
63537;DHT22;49686;51.880;5.632;2024-01-16T03:00:22;0.10;99.90
63537;DHT22;49686;51.880;5.632;2024-01-16T03:02:49;0.10;99.90
63537;DHT22;49686;51.880;5.632;2024-01-16T03:05:16;0.10;99.90
63537;DHT22;49686;51.880;5.632;2024-01-16T03:07:43;0.20;99.90
63537;DHT22;49686;51.880;5.632;2024-01-16T03:10:09;0.20;99.90
63537;DHT22;49686;51.880;5.632;2024-01-16T03:12:36;0.20;99.90
63537;DHT22;49686;51.880;5.632;2024-01-16T03:15:05;0.30;99.90
63537;DHT22;49686;51.880;5.632;2024-01-16T03:17:32;0.30;99.90
63537;DHT22;49686;51.880;5.632;2024-01-16T03:19:59;0.30;99.90
63537;DHT22;49686;51.880;5.632;2024-01-16T03:22:26;0.40;99.90
63537;DHT22;49686;51.880;5.632;2024-01-16T03:24:53;0.40;99.90
63537;DHT22;49686;51.880;5.632;2024-01-16T03:27:20;0.40;99.90
63537;DHT22;49686;51.880;5.632;2024-01-16T03:29:47;0.30;99.90
63537;DHT22;49686;51.880;5.632;2024-01-16T03:32:15;0.30;99.90
63537;DHT22;49686;51.880;5.632;2024-01-16T03:34:42;0.30;99.90
63537;DHT22;49686;51.880;5.632;2024-01-16T03:37:08;0.30;99.90
63537;DHT22;49686;51.880;5.632;2024-01-16T03:39:35;0.20;99.90
63537;DHT22;49686;51.880;5.632;2024-01-16T03:42:02;0.20;99.90
63537;DHT22;49686;51.880;5.632;2024-01-16T03:44:30;0.20;99.90
63537;DHT22;49686;51.880;5.632;2024-01-16T03:46:56;0.20;99.90
63537;DHT22;49686;51.880;5.632;2024-01-16T03:49:25;0.20;99.90
63537;DHT22;49686;51.880;5.632;2024-01-16T03:51:51;0.20;99.90
63537;DHT22;49686;51.880;5.632;2024-01-16T03:54:18;0.30;99.90
63537;DHT22;49686;51.880;5.632;2024-01-16T03:56:45;0.30;99.90
63537;DHT22;49686;51.880;5.632;2024-01-16T03:59:12;0.40;99.90
63537;DHT22;49686;51.880;5.632;2024-01-16T04:01:39;0.40;99.90
63537;DHT22;49686;51.880;5.632;2024-01-16T04:04:06;0.50;99.90
63537;DHT22;49686;51.880;5.632;2024-01-16T04:06:35;0.50;99.90
63537;DHT22;49686;51.880;5.632;2024-01-16T04:09:02;0.50;99.90
63537;DHT22;49686;51.880;5.632;2024-01-16T04:11:29;0.50;99.90
63537;DHT22;49686;51.880;5.632;2024-01-16T04:13:56;0.50;99.90
63537;DHT22;49686;51.880;5.632;2024-01-16T04:16:23;0.50;99.90
63537;DHT22;49686;51.880;5.632;2024-01-16T04:18:49;0.50;99.90
63537;DHT22;49686;51.880;5.632;2024-01-16T04:21:16;0.40;99.90
63537;DHT22;49686;51.880;5.632;2024-01-16T04:23:47;0.40;99.90
63537;DHT22;49686;51.880;5.632;2024-01-16T04:26:14;0.30;99.90
63537;DHT22;49686;51.880;5.632;2024-01-16T04:28:41;0.30;99.90
63537;DHT22;49686;51.880;5.632;2024-01-16T04:31:08;0.30;99.90
63537;DHT22;49686;51.880;5.632;2024-01-16T04:33:35;0.30;99.90
63537;DHT22;49686;51.880;5.632;2024-01-16T04:36:02;0.30;99.90
63537;DHT22;49686;51.880;5.632;2024-01-16T04:38:29;0.30;99.90
63537;DHT22;49686;51.880;5.632;2024-01-16T04:41:01;0.20;99.90
63537;DHT22;49686;51.880;5.632;2024-01-16T04:43:28;0.20;99.90
63537;DHT22;49686;51.880;5.632;2024-01-16T04:45:54;0.30;99.90
63537;DHT22;49686;51.880;5.632;2024-01-16T04:48:21;0.20;99.90
63537;DHT22;49686;51.880;5.632;2024-01-16T04:50:48;0.30;99.90
63537;DHT22;49686;51.880;5.632;2024-01-16T04:53:16;0.30;99.90
63537;DHT22;49686;51.880;5.632;2024-01-16T04:55:42;0.30;99.90
63537;DHT22;49686;51.880;5.632;2024-01-16T04:58:11;0.30;99.90
63537;DHT22;49686;51.880;5.632;2024-01-16T05:00:37;0.30;99.90
63537;DHT22;49686;51.880;5.632;2024-01-16T05:03:05;0.30;99.90
63537;DHT22;49686;51.880;5.632;2024-01-16T05:05:32;0.30;99.90
63537;DHT22;49686;51.880;5.632;2024-01-16T05:08:01;0.40;99.90
63537;DHT22;49686;51.880;5.632;2024-01-16T05:10:27;0.40;99.90
63537;DHT22;49686;51.880;5.632;2024-01-16T05:12:54;0.40;99.90
63537;DHT22;49686;51.880;5.632;2024-01-16T05:15:22;0.40;99.90
63537;DHT22;49686;51.880;5.632;2024-01-16T05:17:49;0.40;99.90
63537;DHT22;49686;51.880;5.632;2024-01-16T05:20:16;0.40;99.90
63537;DHT22;49686;51.880;5.632;2024-01-16T05:22:43;0.40;99.90
63537;DHT22;49686;51.880;5.632;2024-01-16T05:25:10;0.40;99.90
63537;DHT22;49686;51.880;5.632;2024-01-16T05:27:37;0.40;99.90
63537;DHT22;49686;51.880;5.632;2024-01-16T05:30:05;0.40;99.90
63537;DHT22;49686;51.880;5.632;2024-01-16T05:32:33;0.40;99.90
63537;DHT22;49686;51.880;5.632;2024-01-16T05:35:00;0.40;99.90
63537;DHT22;49686;51.880;5.632;2024-01-16T05:37:27;0.40;99.90
63537;DHT22;49686;51.880;5.632;2024-01-16T05:39:54;0.40;99.90
63537;DHT22;49686;51.880;5.632;2024-01-16T05:42:20;0.50;99.90
63537;DHT22;49686;51.880;5.632;2024-01-16T05:44:47;0.50;99.90
63537;DHT22;49686;51.880;5.632;2024-01-16T05:47:14;0.50;99.90
63537;DHT22;49686;51.880;5.632;2024-01-16T05:49:43;0.50;99.90
63537;DHT22;49686;51.880;5.632;2024-01-16T05:52:10;0.50;99.90
63537;DHT22;49686;51.880;5.632;2024-01-16T05:54:37;0.50;99.90
63537;DHT22;49686;51.880;5.632;2024-01-16T05:57:04;0.50;99.90
63537;DHT22;49686;51.880;5.632;2024-01-16T05:59:31;0.50;99.90
63537;DHT22;49686;51.880;5.632;2024-01-16T06:01:58;0.50;99.90
63537;DHT22;49686;51.880;5.632;2024-01-16T06:04:25;0.40;99.90
63537;DHT22;49686;51.880;5.632;2024-01-16T06:06:53;0.40;99.90
63537;DHT22;49686;51.880;5.632;2024-01-16T06:09:20;0.40;99.90
63537;DHT22;49686;51.880;5.632;2024-01-16T06:11:47;0.40;99.90
63537;DHT22;49686;51.880;5.632;2024-01-16T06:14:14;0.40;99.90
63537;DHT22;49686;51.880;5.632;2024-01-16T06:16:40;0.50;99.90
63537;DHT22;49686;51.880;5.632;2024-01-16T06:19:07;0.50;99.90
63537;DHT22;49686;51.880;5.632;2024-01-16T06:21:34;0.50;99.90
63537;DHT22;49686;51.880;5.632;2024-01-16T06:24:02;0.50;99.90
63537;DHT22;49686;51.880;5.632;2024-01-16T06:26:29;0.50;99.90
63537;DHT22;49686;51.880;5.632;2024-01-16T06:28:56;0.40;99.90
63537;DHT22;49686;51.880;5.632;2024-01-16T06:31:23;0.40;99.90
63537;DHT22;49686;51.880;5.632;2024-01-16T06:33:50;0.50;99.90
63537;DHT22;49686;51.880;5.632;2024-01-16T06:36:17;0.50;99.90
63537;DHT22;49686;51.880;5.632;2024-01-16T06:38:44;0.40;99.90
63537;DHT22;49686;51.880;5.632;2024-01-16T06:41:12;0.40;99.90
63537;DHT22;49686;51.880;5.632;2024-01-16T06:43:39;0.40;99.90
63537;DHT22;49686;51.880;5.632;2024-01-16T06:46:06;0.40;99.90
63537;DHT22;49686;51.880;5.632;2024-01-16T06:48:35;0.50;99.90
63537;DHT22;49686;51.880;5.632;2024-01-16T06:51:02;0.40;99.90
63537;DHT22;49686;51.880;5.632;2024-01-16T06:53:28;0.50;99.90
63537;DHT22;49686;51.880;5.632;2024-01-16T06:55:55;0.40;99.90
63537;DHT22;49686;51.880;5.632;2024-01-16T06:58:24;0.40;99.90
63537;DHT22;49686;51.880;5.632;2024-01-16T07:00:50;0.40;99.90
63537;DHT22;49686;51.880;5.632;2024-01-16T07:03:17;0.50;99.90
63537;DHT22;49686;51.880;5.632;2024-01-16T07:05:44;0.50;99.90
63537;DHT22;49686;51.880;5.632;2024-01-16T07:08:11;0.40;99.90
63537;DHT22;49686;51.880;5.632;2024-01-16T07:10:38;0.40;99.90
63537;DHT22;49686;51.880;5.632;2024-01-16T07:13:05;0.40;99.90
63537;DHT22;49686;51.880;5.632;2024-01-16T07:15:33;0.40;99.90
63537;DHT22;49686;51.880;5.632;2024-01-16T07:18:00;0.40;99.90
63537;DHT22;49686;51.880;5.632;2024-01-16T07:20:27;0.30;99.90
63537;DHT22;49686;51.880;5.632;2024-01-16T07:22:54;0.30;99.90
63537;DHT22;49686;51.880;5.632;2024-01-16T07:25:21;0.30;99.90
63537;DHT22;49686;51.880;5.632;2024-01-16T07:27:48;0.30;99.90
63537;DHT22;49686;51.880;5.632;2024-01-16T07:30:15;0.30;99.90
63537;DHT22;49686;51.880;5.632;2024-01-16T07:32:43;0.30;99.90
63537;DHT22;49686;51.880;5.632;2024-01-16T07:35:10;0.30;99.90
63537;DHT22;49686;51.880;5.632;2024-01-16T07:37:37;0.30;99.90
63537;DHT22;49686;51.880;5.632;2024-01-16T07:40:05;0.30;99.90
63537;DHT22;49686;51.880;5.632;2024-01-16T07:42:32;0.30;99.90
63537;DHT22;49686;51.880;5.632;2024-01-16T07:44:58;0.20;99.90
63537;DHT22;49686;51.880;5.632;2024-01-16T07:47:25;0.20;99.90
63537;DHT22;49686;51.880;5.632;2024-01-16T07:49:54;0.30;99.90
63537;DHT22;49686;51.880;5.632;2024-01-16T07:52:20;0.20;99.90
63537;DHT22;49686;51.880;5.632;2024-01-16T07:54:47;0.20;99.90
63537;DHT22;49686;51.880;5.632;2024-01-16T07:57:14;0.20;99.90
63537;DHT22;49686;51.880;5.632;2024-01-16T07:59:41;0.30;99.90
63537;DHT22;49686;51.880;5.632;2024-01-16T08:02:08;0.30;99.90
63537;DHT22;49686;51.880;5.632;2024-01-16T08:04:35;0.20;99.90
63537;DHT22;49686;51.880;5.632;2024-01-16T08:07:03;0.20;99.90
63537;DHT22;49686;51.880;5.632;2024-01-16T08:09:30;0.20;99.90
63537;DHT22;49686;51.880;5.632;2024-01-16T08:11:57;0.20;99.90
63537;DHT22;49686;51.880;5.632;2024-01-16T08:14:24;0.20;99.90
63537;DHT22;49686;51.880;5.632;2024-01-16T08:16:51;0.20;99.90
63537;DHT22;49686;51.880;5.632;2024-01-16T08:19:18;0.20;99.90
63537;DHT22;49686;51.880;5.632;2024-01-16T08:21:45;0.20;99.90
63537;DHT22;49686;51.880;5.632;2024-01-16T08:24:13;0.20;99.90
63537;DHT22;49686;51.880;5.632;2024-01-16T08:26:40;0.20;99.90
63537;DHT22;49686;51.880;5.632;2024-01-16T08:29:07;0.20;99.90
63537;DHT22;49686;51.880;5.632;2024-01-16T08:31:34;0.20;99.90
63537;DHT22;49686;51.880;5.632;2024-01-16T08:34:01;0.20;99.90
63537;DHT22;49686;51.880;5.632;2024-01-16T08:36:28;0.20;99.90
63537;DHT22;49686;51.880;5.632;2024-01-16T08:38:55;0.20;99.90
63537;DHT22;49686;51.880;5.632;2024-01-16T08:41:23;0.30;99.90
63537;DHT22;49686;51.880;5.632;2024-01-16T08:43:50;0.30;99.90
63537;DHT22;49686;51.880;5.632;2024-01-16T08:46:17;0.20;99.90
63537;DHT22;49686;51.880;5.632;2024-01-16T08:48:44;0.20;99.90
63537;DHT22;49686;51.880;5.632;2024-01-16T08:51:11;0.20;99.90
63537;DHT22;49686;51.880;5.632;2024-01-16T08:53:38;0.20;99.90
63537;DHT22;49686;51.880;5.632;2024-01-16T08:56:05;0.20;99.90
63537;DHT22;49686;51.880;5.632;2024-01-16T08:58:34;0.20;99.90
63537;DHT22;49686;51.880;5.632;2024-01-16T09:01:00;0.20;99.90
63537;DHT22;49686;51.880;5.632;2024-01-16T09:03:27;0.20;99.90
63537;DHT22;49686;51.880;5.632;2024-01-16T09:05:54;0.20;99.90
63537;DHT22;49686;51.880;5.632;2024-01-16T09:08:21;0.20;99.90
63537;DHT22;49686;51.880;5.632;2024-01-16T09:10:48;0.20;99.90
63537;DHT22;49686;51.880;5.632;2024-01-16T09:13:15;0.10;99.90
63537;DHT22;49686;51.880;5.632;2024-01-16T09:15:43;0.10;99.90
63537;DHT22;49686;51.880;5.632;2024-01-16T09:18:10;0.10;99.90
63537;DHT22;49686;51.880;5.632;2024-01-16T09:20:37;0.10;99.90
63537;DHT22;49686;51.880;5.632;2024-01-16T09:23:04;0.20;99.90
63537;DHT22;49686;51.880;5.632;2024-01-16T09:25:31;0.20;99.90
63537;DHT22;49686;51.880;5.632;2024-01-16T09:27:57;0.30;99.90
63537;DHT22;49686;51.880;5.632;2024-01-16T09:30:24;0.30;99.90
63537;DHT22;49686;51.880;5.632;2024-01-16T09:32:53;0.30;99.90
63537;DHT22;49686;51.880;5.632;2024-01-16T09:35:19;0.30;99.90
63537;DHT22;49686;51.880;5.632;2024-01-16T09:37:46;0.30;99.90
63537;DHT22;49686;51.880;5.632;2024-01-16T09:40:13;0.30;99.90
63537;DHT22;49686;51.880;5.632;2024-01-16T09:42:40;0.40;99.90
63537;DHT22;49686;51.880;5.632;2024-01-16T09:45:09;0.40;99.90
63537;DHT22;49686;51.880;5.632;2024-01-16T09:47:37;0.50;99.90
63537;DHT22;49686;51.880;5.632;2024-01-16T09:50:06;0.60;99.90
63537;DHT22;49686;51.880;5.632;2024-01-16T09:52:33;0.60;99.90
63537;DHT22;49686;51.880;5.632;2024-01-16T09:55:00;0.60;99.90
63537;DHT22;49686;51.880;5.632;2024-01-16T09:57:28;0.60;99.90
63537;DHT22;49686;51.880;5.632;2024-01-16T09:59:56;0.60;99.90
63537;DHT22;49686;51.880;5.632;2024-01-16T10:02:24;0.60;99.90
63537;DHT22;49686;51.880;5.632;2024-01-16T10:04:51;0.70;99.90
63537;DHT22;49686;51.880;5.632;2024-01-16T10:07:20;0.70;99.90
63537;DHT22;49686;51.880;5.632;2024-01-16T10:09:48;0.80;99.90
63537;DHT22;49686;51.880;5.632;2024-01-16T10:12:15;0.90;99.90
63537;DHT22;49686;51.880;5.632;2024-01-16T10:14:43;0.90;99.90
63537;DHT22;49686;51.880;5.632;2024-01-16T10:17:10;0.90;99.90
63537;DHT22;49686;51.880;5.632;2024-01-16T10:19:47;0.80;99.90
63537;DHT22;49686;51.880;5.632;2024-01-16T10:22:21;0.80;99.90
63537;DHT22;49686;51.880;5.632;2024-01-16T10:25:04;0.70;99.90
63537;DHT22;49686;51.880;5.632;2024-01-16T10:27:31;0.80;99.90
63537;DHT22;49686;51.880;5.632;2024-01-16T10:29:58;0.90;99.90
63537;DHT22;49686;51.880;5.632;2024-01-16T10:32:29;0.90;99.90
63537;DHT22;49686;51.880;5.632;2024-01-16T10:35:04;1.00;99.90
63537;DHT22;49686;51.880;5.632;2024-01-16T10:37:40;1.10;99.90
63537;DHT22;49686;51.880;5.632;2024-01-16T10:40:08;1.10;99.90
63537;DHT22;49686;51.880;5.632;2024-01-16T10:42:35;1.10;99.90
63537;DHT22;49686;51.880;5.632;2024-01-16T10:45:02;1.10;99.90
63537;DHT22;49686;51.880;5.632;2024-01-16T10:47:29;1.20;99.90
63537;DHT22;49686;51.880;5.632;2024-01-16T10:49:56;1.20;99.90
63537;DHT22;49686;51.880;5.632;2024-01-16T10:52:27;1.10;99.90
63537;DHT22;49686;51.880;5.632;2024-01-16T10:54:56;1.10;99.90
63537;DHT22;49686;51.880;5.632;2024-01-16T10:57:24;1.10;99.90
63537;DHT22;49686;51.880;5.632;2024-01-16T11:00:00;1.20;99.90
63537;DHT22;49686;51.880;5.632;2024-01-16T11:02:33;1.30;99.90
63537;DHT22;49686;51.880;5.632;2024-01-16T11:05:02;1.30;99.90
63537;DHT22;49686;51.880;5.632;2024-01-16T11:07:29;1.30;99.90
63537;DHT22;49686;51.880;5.632;2024-01-16T11:09:58;1.30;99.90
63537;DHT22;49686;51.880;5.632;2024-01-16T11:12:26;1.30;99.90
63537;DHT22;49686;51.880;5.632;2024-01-16T11:14:53;1.40;99.90
63537;DHT22;49686;51.880;5.632;2024-01-16T11:17:22;1.40;99.90
63537;DHT22;49686;51.880;5.632;2024-01-16T11:19:50;1.40;99.90
63537;DHT22;49686;51.880;5.632;2024-01-16T11:22:39;1.40;99.90
63537;DHT22;49686;51.880;5.632;2024-01-16T11:25:15;1.50;99.90
63537;DHT22;49686;51.880;5.632;2024-01-16T11:27:43;1.50;99.90
63537;DHT22;49686;51.880;5.632;2024-01-16T11:30:11;1.50;99.90
63537;DHT22;49686;51.880;5.632;2024-01-16T11:32:40;1.50;99.90
63537;DHT22;49686;51.880;5.632;2024-01-16T11:35:08;1.50;99.90
63537;DHT22;49686;51.880;5.632;2024-01-16T11:37:35;1.60;99.90
63537;DHT22;49686;51.880;5.632;2024-01-16T11:40:24;1.60;99.90
63537;DHT22;49686;51.880;5.632;2024-01-16T11:42:52;1.60;99.90
63537;DHT22;49686;51.880;5.632;2024-01-16T11:45:49;1.60;99.90
63537;DHT22;49686;51.880;5.632;2024-01-16T11:48:17;1.70;99.90
63537;DHT22;49686;51.880;5.632;2024-01-16T11:50:44;1.70;99.90
63537;DHT22;49686;51.880;5.632;2024-01-16T11:53:31;1.70;99.90
63537;DHT22;49686;51.880;5.632;2024-01-16T11:59:40;1.90;99.90
63537;DHT22;49686;51.880;5.632;2024-01-16T12:02:14;1.90;99.90
63537;DHT22;49686;51.880;5.632;2024-01-16T12:04:52;1.80;99.90
63537;DHT22;49686;51.880;5.632;2024-01-16T12:07:19;1.90;99.90
63537;DHT22;49686;51.880;5.632;2024-01-16T12:09:45;1.90;99.90
63537;DHT22;49686;51.880;5.632;2024-01-16T12:12:15;1.90;99.90
63537;DHT22;49686;51.880;5.632;2024-01-16T12:14:51;2.00;99.90
63537;DHT22;49686;51.880;5.632;2024-01-16T12:17:18;2.10;99.90
63537;DHT22;49686;51.880;5.632;2024-01-16T12:19:45;2.20;99.90
63537;DHT22;49686;51.880;5.632;2024-01-16T12:22:14;2.10;99.90
63537;DHT22;49686;51.880;5.632;2024-01-16T12:24:41;2.10;99.90
63537;DHT22;49686;51.880;5.632;2024-01-16T12:27:08;2.20;99.90
63537;DHT22;49686;51.880;5.632;2024-01-16T12:29:36;2.40;99.90
63537;DHT22;49686;51.880;5.632;2024-01-16T12:32:08;2.50;99.90
63537;DHT22;49686;51.880;5.632;2024-01-16T12:34:35;2.30;99.90
63537;DHT22;49686;51.880;5.632;2024-01-16T12:37:05;2.30;99.90
63537;DHT22;49686;51.880;5.632;2024-01-16T12:39:32;2.30;99.90
63537;DHT22;49686;51.880;5.632;2024-01-16T12:41:59;2.30;99.90
63537;DHT22;49686;51.880;5.632;2024-01-16T12:44:27;2.20;99.90
63537;DHT22;49686;51.880;5.632;2024-01-16T12:46:55;2.20;99.90
63537;DHT22;49686;51.880;5.632;2024-01-16T12:49:23;2.20;99.90
63537;DHT22;49686;51.880;5.632;2024-01-16T12:51:50;2.20;99.90
63537;DHT22;49686;51.880;5.632;2024-01-16T12:54:18;2.10;99.90
63537;DHT22;49686;51.880;5.632;2024-01-16T12:56:46;2.00;99.90
63537;DHT22;49686;51.880;5.632;2024-01-16T12:59:14;2.00;99.90
63537;DHT22;49686;51.880;5.632;2024-01-16T13:01:42;2.00;99.90
63537;DHT22;49686;51.880;5.632;2024-01-16T13:04:10;1.90;99.90
63537;DHT22;49686;51.880;5.632;2024-01-16T13:06:37;1.90;99.90
63537;DHT22;49686;51.880;5.632;2024-01-16T13:09:06;1.90;99.90
63537;DHT22;49686;51.880;5.632;2024-01-16T13:11:45;1.90;99.90
63537;DHT22;49686;51.880;5.632;2024-01-16T13:14:12;1.90;99.90
63537;DHT22;49686;51.880;5.632;2024-01-16T13:16:39;1.90;99.90
63537;DHT22;49686;51.880;5.632;2024-01-16T13:19:05;1.90;99.90
63537;DHT22;49686;51.880;5.632;2024-01-16T13:21:34;1.90;99.90
63537;DHT22;49686;51.880;5.632;2024-01-16T13:24:02;2.00;99.90
63537;DHT22;49686;51.880;5.632;2024-01-16T13:26:29;2.00;99.90
63537;DHT22;49686;51.880;5.632;2024-01-16T13:28:56;2.00;99.90
63537;DHT22;49686;51.880;5.632;2024-01-16T13:31:23;2.00;99.90
63537;DHT22;49686;51.880;5.632;2024-01-16T13:33:50;2.10;99.90
63537;DHT22;49686;51.880;5.632;2024-01-16T13:36:17;2.10;99.90
63537;DHT22;49686;51.880;5.632;2024-01-16T13:39:05;2.10;99.90
63537;DHT22;49686;51.880;5.632;2024-01-16T13:41:32;2.10;99.90
63537;DHT22;49686;51.880;5.632;2024-01-16T13:43:58;2.10;99.90
63537;DHT22;49686;51.880;5.632;2024-01-16T13:46:25;2.10;99.90
63537;DHT22;49686;51.880;5.632;2024-01-16T13:49:12;2.10;99.90
63537;DHT22;49686;51.880;5.632;2024-01-16T13:51:39;2.10;99.90
63537;DHT22;49686;51.880;5.632;2024-01-16T13:54:11;2.00;99.90
63537;DHT22;49686;51.880;5.632;2024-01-16T13:56:38;2.00;99.90
63537;DHT22;49686;51.880;5.632;2024-01-16T13:59:25;2.10;99.90
63537;DHT22;49686;51.880;5.632;2024-01-16T14:01:51;2.00;99.90
63537;DHT22;49686;51.880;5.632;2024-01-16T14:04:18;2.00;99.90
63537;DHT22;49686;51.880;5.632;2024-01-16T14:06:45;2.00;99.90
63537;DHT22;49686;51.880;5.632;2024-01-16T14:09:34;2.00;99.90
63537;DHT22;49686;51.880;5.632;2024-01-16T14:12:02;1.90;99.90
63537;DHT22;49686;51.880;5.632;2024-01-16T14:14:29;1.80;99.90
63537;DHT22;49686;51.880;5.632;2024-01-16T14:16:56;1.80;99.90
63537;DHT22;49686;51.880;5.632;2024-01-16T14:19:27;1.80;99.90
63537;DHT22;49686;51.880;5.632;2024-01-16T14:21:54;1.80;99.90
63537;DHT22;49686;51.880;5.632;2024-01-16T14:24:21;1.70;99.90
63537;DHT22;49686;51.880;5.632;2024-01-16T14:26:49;1.80;99.90
63537;DHT22;49686;51.880;5.632;2024-01-16T14:29:16;1.70;99.90
63537;DHT22;49686;51.880;5.632;2024-01-16T14:31:43;1.70;99.90
63537;DHT22;49686;51.880;5.632;2024-01-16T14:34:10;1.70;99.90
63537;DHT22;49686;51.880;5.632;2024-01-16T14:36:37;1.80;99.90
63537;DHT22;49686;51.880;5.632;2024-01-16T14:39:04;1.80;99.90
63537;DHT22;49686;51.880;5.632;2024-01-16T14:41:31;1.70;99.90
63537;DHT22;49686;51.880;5.632;2024-01-16T14:43:59;1.70;99.90
63537;DHT22;49686;51.880;5.632;2024-01-16T14:46:26;1.60;99.90
63537;DHT22;49686;51.880;5.632;2024-01-16T14:48:53;1.60;99.90
63537;DHT22;49686;51.880;5.632;2024-01-16T14:51:20;1.50;99.90
63537;DHT22;49686;51.880;5.632;2024-01-16T14:53:47;1.60;99.90
63537;DHT22;49686;51.880;5.632;2024-01-16T14:56:14;1.50;99.90
63537;DHT22;49686;51.880;5.632;2024-01-16T14:58:41;1.50;99.90
63537;DHT22;49686;51.880;5.632;2024-01-16T15:01:09;1.50;99.90
63537;DHT22;49686;51.880;5.632;2024-01-16T15:03:36;1.40;99.90
63537;DHT22;49686;51.880;5.632;2024-01-16T15:06:03;1.40;99.90
63537;DHT22;49686;51.880;5.632;2024-01-16T15:08:31;1.30;99.90
63537;DHT22;49686;51.880;5.632;2024-01-16T15:10:58;1.30;99.90
63537;DHT22;49686;51.880;5.632;2024-01-16T15:13:25;1.30;99.90
63537;DHT22;49686;51.880;5.632;2024-01-16T15:15:52;1.20;99.90
63537;DHT22;49686;51.880;5.632;2024-01-16T15:18:20;1.20;99.90
63537;DHT22;49686;51.880;5.632;2024-01-16T15:20:47;1.20;99.90
63537;DHT22;49686;51.880;5.632;2024-01-16T15:23:14;1.10;99.90
63537;DHT22;49686;51.880;5.632;2024-01-16T15:25:41;1.10;99.90
63537;DHT22;49686;51.880;5.632;2024-01-16T15:28:08;1.10;99.90
63537;DHT22;49686;51.880;5.632;2024-01-16T15:30:35;1.10;99.90
63537;DHT22;49686;51.880;5.632;2024-01-16T15:33:02;1.10;99.90
63537;DHT22;49686;51.880;5.632;2024-01-16T15:35:30;1.00;99.90
63537;DHT22;49686;51.880;5.632;2024-01-16T15:37:57;1.00;99.90
63537;DHT22;49686;51.880;5.632;2024-01-16T15:40:24;1.00;99.90
63537;DHT22;49686;51.880;5.632;2024-01-16T15:42:51;0.90;99.90
63537;DHT22;49686;51.880;5.632;2024-01-16T15:45:18;0.90;99.90
63537;DHT22;49686;51.880;5.632;2024-01-16T15:47:45;0.80;99.90
63537;DHT22;49686;51.880;5.632;2024-01-16T15:50:12;0.70;99.90